sensor_id;sensor_type;location;lat;lon;timestamp;P1;durP1;ratioP1;P2;durP2;ratioP2
25946;SDS011;13745;51.470;9.894;2023-10-08T00:02:42;16.35;;;6.05;;
25946;SDS011;13745;51.470;9.894;2023-10-08T00:05:28;11.13;;;4.97;;
25946;SDS011;13745;51.470;9.894;2023-10-08T00:08:14;15.43;;;6.03;;
25946;SDS011;13745;51.470;9.894;2023-10-08T00:11:00;11.65;;;5.75;;
25946;SDS011;13745;51.470;9.894;2023-10-08T00:13:49;10.98;;;5.22;;
25946;SDS011;13745;51.470;9.894;2023-10-08T00:16:39;14.57;;;6.25;;
25946;SDS011;13745;51.470;9.894;2023-10-08T00:19:25;10.77;;;5.38;;
25946;SDS011;13745;51.470;9.894;2023-10-08T00:25:03;12.35;;;5.20;;
25946;SDS011;13745;51.470;9.894;2023-10-08T00:27:55;17.20;;;5.70;;
25946;SDS011;13745;51.470;9.894;2023-10-08T00:30:40;9.88;;;5.40;;
25946;SDS011;13745;51.470;9.894;2023-10-08T00:33:26;16.83;;;6.75;;
25946;SDS011;13745;51.470;9.894;2023-10-08T00:36:15;13.48;;;6.07;;
25946;SDS011;13745;51.470;9.894;2023-10-08T00:39:04;16.48;;;5.90;;
25946;SDS011;13745;51.470;9.894;2023-10-08T00:41:54;18.35;;;6.38;;
25946;SDS011;13745;51.470;9.894;2023-10-08T00:44:41;14.05;;;6.70;;
25946;SDS011;13745;51.470;9.894;2023-10-08T00:50:27;16.90;;;6.53;;
25946;SDS011;13745;51.470;9.894;2023-10-08T00:53:27;12.75;;;5.95;;
25946;SDS011;13745;51.470;9.894;2023-10-08T00:56:12;13.23;;;6.15;;
25946;SDS011;13745;51.470;9.894;2023-10-08T00:59:03;15.43;;;6.15;;
25946;SDS011;13745;51.470;9.894;2023-10-08T01:01:50;13.45;;;6.53;;
25946;SDS011;13745;51.470;9.894;2023-10-08T01:04:35;12.45;;;6.10;;
25946;SDS011;13745;51.470;9.894;2023-10-08T01:07:22;11.70;;;5.85;;
25946;SDS011;13745;51.470;9.894;2023-10-08T01:10:11;16.10;;;6.53;;
25946;SDS011;13745;51.470;9.894;2023-10-08T01:13:03;15.18;;;6.13;;
25946;SDS011;13745;51.470;9.894;2023-10-08T01:15:51;14.77;;;6.88;;
25946;SDS011;13745;51.470;9.894;2023-10-08T01:18:36;16.98;;;6.32;;
25946;SDS011;13745;51.470;9.894;2023-10-08T01:21:28;13.40;;;5.90;;
25946;SDS011;13745;51.470;9.894;2023-10-08T01:24:22;13.63;;;6.18;;
25946;SDS011;13745;51.470;9.894;2023-10-08T01:27:07;21.10;;;7.22;;
25946;SDS011;13745;51.470;9.894;2023-10-08T01:29:55;16.33;;;7.25;;
25946;SDS011;13745;51.470;9.894;2023-10-08T01:32:52;15.00;;;7.72;;
25946;SDS011;13745;51.470;9.894;2023-10-08T01:35:37;13.98;;;7.15;;
25946;SDS011;13745;51.470;9.894;2023-10-08T01:38:22;19.65;;;8.20;;
25946;SDS011;13745;51.470;9.894;2023-10-08T01:41:09;17.55;;;7.05;;
25946;SDS011;13745;51.470;9.894;2023-10-08T01:44:03;14.68;;;6.78;;
25946;SDS011;13745;51.470;9.894;2023-10-08T01:46:51;15.00;;;7.35;;
25946;SDS011;13745;51.470;9.894;2023-10-08T01:49:37;13.68;;;7.45;;
25946;SDS011;13745;51.470;9.894;2023-10-08T01:52:24;17.10;;;8.30;;
25946;SDS011;13745;51.470;9.894;2023-10-08T01:55:09;16.90;;;8.63;;
25946;SDS011;13745;51.470;9.894;2023-10-08T01:58:00;20.77;;;7.47;;
25946;SDS011;13745;51.470;9.894;2023-10-08T02:00:46;16.42;;;7.88;;
25946;SDS011;13745;51.470;9.894;2023-10-08T02:03:33;15.45;;;7.22;;
25946;SDS011;13745;51.470;9.894;2023-10-08T02:06:18;14.95;;;8.05;;
25946;SDS011;13745;51.470;9.894;2023-10-08T02:09:04;19.88;;;8.57;;
25946;SDS011;13745;51.470;9.894;2023-10-08T02:11:51;22.90;;;8.25;;
25946;SDS011;13745;51.470;9.894;2023-10-08T02:14:40;20.17;;;8.25;;
25946;SDS011;13745;51.470;9.894;2023-10-08T02:17:26;19.75;;;7.97;;
25946;SDS011;13745;51.470;9.894;2023-10-08T02:20:12;20.73;;;8.55;;
25946;SDS011;13745;51.470;9.894;2023-10-08T02:23:00;22.70;;;8.75;;
25946;SDS011;13745;51.470;9.894;2023-10-08T02:25:45;24.50;;;9.18;;
25946;SDS011;13745;51.470;9.894;2023-10-08T02:28:31;23.98;;;8.85;;
25946;SDS011;13745;51.470;9.894;2023-10-08T02:31:18;16.20;;;8.55;;
25946;SDS011;13745;51.470;9.894;2023-10-08T02:34:05;26.75;;;9.63;;
25946;SDS011;13745;51.470;9.894;2023-10-08T02:36:52;20.27;;;9.48;;
25946;SDS011;13745;51.470;9.894;2023-10-08T02:39:39;20.85;;;9.75;;
25946;SDS011;13745;51.470;9.894;2023-10-08T02:42:24;20.95;;;9.85;;
25946;SDS011;13745;51.470;9.894;2023-10-08T02:45:09;1.88;;;1.52;;
25946;SDS011;13745;51.470;9.894;2023-10-08T02:47:58;0.88;;;0.32;;
25946;SDS011;13745;51.470;9.894;2023-10-08T02:50:44;1.23;;;0.10;;
25946;SDS011;13745;51.470;9.894;2023-10-08T02:53:29;0.25;;;0.15;;
25946;SDS011;13745;51.470;9.894;2023-10-08T02:56:14;0.10;;;0.10;;
25946;SDS011;13745;51.470;9.894;2023-10-08T02:58:59;0.05;;;0.00;;
25946;SDS011;13745;51.470;9.894;2023-10-08T03:01:45;0.00;;;0.00;;
25946;SDS011;13745;51.470;9.894;2023-10-08T03:04:32;0.13;;;0.10;;
25946;SDS011;13745;51.470;9.894;2023-10-08T03:07:20;0.00;;;0.00;;
25946;SDS011;13745;51.470;9.894;2023-10-08T03:10:17;2.60;;;0.00;;
25946;SDS011;13745;51.470;9.894;2023-10-08T03:13:02;0.00;;;0.00;;
25946;SDS011;13745;51.470;9.894;2023-10-08T03:15:49;0.00;;;0.00;;
25946;SDS011;13745;51.470;9.894;2023-10-08T03:18:52;0.15;;;0.00;;
25946;SDS011;13745;51.470;9.894;2023-10-08T03:21:40;0.20;;;0.17;;
25946;SDS011;13745;51.470;9.894;2023-10-08T03:24:33;0.00;;;0.00;;
25946;SDS011;13745;51.470;9.894;2023-10-08T03:27:24;0.43;;;0.00;;
25946;SDS011;13745;51.470;9.894;2023-10-08T03:30:10;0.00;;;0.00;;
25946;SDS011;13745;51.470;9.894;2023-10-08T03:32:58;0.03;;;0.00;;
25946;SDS011;13745;51.470;9.894;2023-10-08T03:35:45;0.10;;;0.10;;
25946;SDS011;13745;51.470;9.894;2023-10-08T03:38:31;0.20;;;0.20;;
25946;SDS011;13745;51.470;9.894;2023-10-08T03:41:28;0.73;;;0.55;;
25946;SDS011;13745;51.470;9.894;2023-10-08T03:44:14;0.75;;;0.40;;
25946;SDS011;13745;51.470;9.894;2023-10-08T03:47:00;0.40;;;0.40;;
25946;SDS011;13745;51.470;9.894;2023-10-08T03:49:53;0.40;;;0.40;;
25946;SDS011;13745;51.470;9.894;2023-10-08T03:52:38;0.50;;;0.20;;
25946;SDS011;13745;51.470;9.894;2023-10-08T03:55:28;0.20;;;0.20;;
25946;SDS011;13745;51.470;9.894;2023-10-08T03:58:18;0.20;;;0.20;;
25946;SDS011;13745;51.470;9.894;2023-10-08T04:01:11;0.20;;;0.20;;
25946;SDS011;13745;51.470;9.894;2023-10-08T04:04:02;0.25;;;0.25;;
25946;SDS011;13745;51.470;9.894;2023-10-08T04:06:47;0.32;;;0.32;;
25946;SDS011;13745;51.470;9.894;2023-10-08T04:09:33;0.40;;;0.40;;
25946;SDS011;13745;51.470;9.894;2023-10-08T04:12:19;0.30;;;0.30;;
25946;SDS011;13745;51.470;9.894;2023-10-08T04:15:03;0.28;;;0.10;;
25946;SDS011;13745;51.470;9.894;2023-10-08T04:17:51;0.47;;;0.10;;
25946;SDS011;13745;51.470;9.894;2023-10-08T04:20:36;0.13;;;0.10;;
25946;SDS011;13745;51.470;9.894;2023-10-08T04:23:26;1.80;;;0.20;;
25946;SDS011;13745;51.470;9.894;2023-10-08T04:26:13;2.15;;;0.30;;
25946;SDS011;13745;51.470;9.894;2023-10-08T04:29:01;1.95;;;0.50;;
25946;SDS011;13745;51.470;9.894;2023-10-08T04:31:50;3.80;;;0.70;;
25946;SDS011;13745;51.470;9.894;2023-10-08T04:34:45;1.70;;;0.57;;
25946;SDS011;13745;51.470;9.894;2023-10-08T04:37:31;4.80;;;0.60;;
25946;SDS011;13745;51.470;9.894;2023-10-08T04:40:17;1.95;;;0.52;;
25946;SDS011;13745;51.470;9.894;2023-10-08T04:43:07;2.58;;;0.77;;
25946;SDS011;13745;51.470;9.894;2023-10-08T04:45:56;3.55;;;0.57;;
25946;SDS011;13745;51.470;9.894;2023-10-08T04:48:43;5.78;;;0.95;;
25946;SDS011;13745;51.470;9.894;2023-10-08T04:51:28;4.47;;;1.17;;
25946;SDS011;13745;51.470;9.894;2023-10-08T04:54:17;2.58;;;1.10;;
25946;SDS011;13745;51.470;9.894;2023-10-08T04:57:02;4.15;;;1.00;;
25946;SDS011;13745;51.470;9.894;2023-10-08T04:59:50;3.25;;;1.05;;
25946;SDS011;13745;51.470;9.894;2023-10-08T05:02:36;5.38;;;1.45;;
25946;SDS011;13745;51.470;9.894;2023-10-08T05:05:32;3.75;;;1.30;;
25946;SDS011;13745;51.470;9.894;2023-10-08T05:08:38;4.47;;;1.02;;
25946;SDS011;13745;51.470;9.894;2023-10-08T05:14:30;2.30;;;0.65;;
25946;SDS011;13745;51.470;9.894;2023-10-08T05:17:22;3.17;;;0.73;;
25946;SDS011;13745;51.470;9.894;2023-10-08T05:20:08;4.22;;;1.05;;
25946;SDS011;13745;51.470;9.894;2023-10-08T05:23:05;6.28;;;0.95;;
25946;SDS011;13745;51.470;9.894;2023-10-08T05:26:04;1.77;;;0.70;;
25946;SDS011;13745;51.470;9.894;2023-10-08T05:29:04;6.38;;;1.00;;
25946;SDS011;13745;51.470;9.894;2023-10-08T05:32:08;4.68;;;1.10;;
25946;SDS011;13745;51.470;9.894;2023-10-08T05:35:22;6.45;;;1.27;;
25946;SDS011;13745;51.470;9.894;2023-10-08T05:38:32;3.60;;;1.17;;
25946;SDS011;13745;51.470;9.894;2023-10-08T05:41:32;5.85;;;1.20;;
25946;SDS011;13745;51.470;9.894;2023-10-08T05:44:23;5.63;;;1.33;;
25946;SDS011;13745;51.470;9.894;2023-10-08T05:47:22;3.67;;;1.25;;
25946;SDS011;13745;51.470;9.894;2023-10-08T05:50:23;2.28;;;0.90;;
25946;SDS011;13745;51.470;9.894;2023-10-08T05:53:23;3.35;;;0.95;;
25946;SDS011;13745;51.470;9.894;2023-10-08T05:56:26;3.78;;;1.17;;
25946;SDS011;13745;51.470;9.894;2023-10-08T05:59:25;3.33;;;0.90;;
25946;SDS011;13745;51.470;9.894;2023-10-08T06:02:23;5.40;;;1.35;;
25946;SDS011;13745;51.470;9.894;2023-10-08T06:05:12;3.08;;;1.30;;
25946;SDS011;13745;51.470;9.894;2023-10-08T06:08:05;4.18;;;1.00;;
25946;SDS011;13745;51.470;9.894;2023-10-08T06:10:58;4.13;;;0.93;;
25946;SDS011;13745;51.470;9.894;2023-10-08T06:13:44;0.88;;;0.60;;
25946;SDS011;13745;51.470;9.894;2023-10-08T06:16:39;3.75;;;0.93;;
25946;SDS011;13745;51.470;9.894;2023-10-08T06:19:30;5.70;;;0.90;;
25946;SDS011;13745;51.470;9.894;2023-10-08T06:22:15;3.05;;;0.80;;
25946;SDS011;13745;51.470;9.894;2023-10-08T06:25:01;3.17;;;1.45;;
25946;SDS011;13745;51.470;9.894;2023-10-08T06:28:01;7.97;;;1.08;;
25946;SDS011;13745;51.470;9.894;2023-10-08T06:30:48;3.38;;;0.77;;
25946;SDS011;13745;51.470;9.894;2023-10-08T06:33:37;3.75;;;0.90;;
25946;SDS011;13745;51.470;9.894;2023-10-08T06:36:24;9.52;;;1.58;;
25946;SDS011;13745;51.470;9.894;2023-10-08T06:39:10;3.28;;;1.00;;
25946;SDS011;13745;51.470;9.894;2023-10-08T06:42:03;3.45;;;0.88;;
25946;SDS011;13745;51.470;9.894;2023-10-08T06:44:52;4.10;;;0.65;;
25946;SDS011;13745;51.470;9.894;2023-10-08T06:47:41;4.57;;;1.20;;
25946;SDS011;13745;51.470;9.894;2023-10-08T06:50:29;5.88;;;1.70;;
25946;SDS011;13745;51.470;9.894;2023-10-08T06:53:15;3.40;;;1.20;;
25946;SDS011;13745;51.470;9.894;2023-10-08T06:56:01;4.55;;;0.85;;
25946;SDS011;13745;51.470;9.894;2023-10-08T06:58:50;5.00;;;0.70;;
25946;SDS011;13745;51.470;9.894;2023-10-08T07:01:36;4.05;;;0.70;;
25946;SDS011;13745;51.470;9.894;2023-10-08T07:04:23;2.42;;;0.77;;
25946;SDS011;13745;51.470;9.894;2023-10-08T07:07:08;2.95;;;0.70;;
25946;SDS011;13745;51.470;9.894;2023-10-08T07:09:53;2.13;;;0.80;;
25946;SDS011;13745;51.470;9.894;2023-10-08T07:12:40;2.45;;;0.70;;
25946;SDS011;13745;51.470;9.894;2023-10-08T07:15:31;7.47;;;1.00;;
25946;SDS011;13745;51.470;9.894;2023-10-08T07:18:17;2.60;;;0.90;;
25946;SDS011;13745;51.470;9.894;2023-10-08T07:21:08;1.35;;;0.80;;
25946;SDS011;13745;51.470;9.894;2023-10-08T07:23:56;4.15;;;1.02;;
25946;SDS011;13745;51.470;9.894;2023-10-08T07:26:43;2.50;;;1.13;;
25946;SDS011;13745;51.470;9.894;2023-10-08T07:29:31;3.95;;;0.98;;
25946;SDS011;13745;51.470;9.894;2023-10-08T07:32:17;3.05;;;0.70;;
25946;SDS011;13745;51.470;9.894;2023-10-08T07:35:03;4.68;;;1.25;;
25946;SDS011;13745;51.470;9.894;2023-10-08T07:38:06;3.15;;;1.10;;
25946;SDS011;13745;51.470;9.894;2023-10-08T07:40:53;4.72;;;0.93;;
25946;SDS011;13745;51.470;9.894;2023-10-08T07:43:39;8.30;;;2.00;;
25946;SDS011;13745;51.470;9.894;2023-10-08T07:46:26;5.68;;;1.70;;
25946;SDS011;13745;51.470;9.894;2023-10-08T07:49:12;7.03;;;1.00;;
25946;SDS011;13745;51.470;9.894;2023-10-08T07:51:58;3.08;;;0.90;;
25946;SDS011;13745;51.470;9.894;2023-10-08T07:54:43;4.75;;;0.70;;
25946;SDS011;13745;51.470;9.894;2023-10-08T07:57:29;3.33;;;0.85;;
25946;SDS011;13745;51.470;9.894;2023-10-08T08:00:15;2.58;;;0.80;;
25946;SDS011;13745;51.470;9.894;2023-10-08T08:03:06;2.38;;;0.80;;
25946;SDS011;13745;51.470;9.894;2023-10-08T08:05:53;2.25;;;0.52;;
25946;SDS011;13745;51.470;9.894;2023-10-08T08:08:38;4.97;;;0.82;;
25946;SDS011;13745;51.470;9.894;2023-10-08T08:11:24;3.22;;;0.70;;
25946;SDS011;13745;51.470;9.894;2023-10-08T08:14:09;2.45;;;0.60;;
25946;SDS011;13745;51.470;9.894;2023-10-08T08:16:55;3.15;;;1.77;;
25946;SDS011;13745;51.470;9.894;2023-10-08T08:19:40;5.05;;;1.05;;
25946;SDS011;13745;51.470;9.894;2023-10-08T08:22:26;4.03;;;1.02;;
25946;SDS011;13745;51.470;9.894;2023-10-08T08:25:15;4.25;;;1.23;;
25946;SDS011;13745;51.470;9.894;2023-10-08T08:28:10;6.63;;;0.90;;
25946;SDS011;13745;51.470;9.894;2023-10-08T08:31:03;10.35;;;1.35;;
25946;SDS011;13745;51.470;9.894;2023-10-08T08:33:57;2.88;;;0.68;;
25946;SDS011;13745;51.470;9.894;2023-10-08T08:36:46;2.90;;;1.00;;
25946;SDS011;13745;51.470;9.894;2023-10-08T08:39:33;6.10;;;0.88;;
25946;SDS011;13745;51.470;9.894;2023-10-08T08:42:21;1.75;;;0.82;;
25946;SDS011;13745;51.470;9.894;2023-10-08T08:45:09;2.88;;;0.70;;
25946;SDS011;13745;51.470;9.894;2023-10-08T08:47:57;6.57;;;1.17;;
25946;SDS011;13745;51.470;9.894;2023-10-08T08:50:43;4.80;;;0.98;;
25946;SDS011;13745;51.470;9.894;2023-10-08T08:53:31;2.97;;;0.73;;
25946;SDS011;13745;51.470;9.894;2023-10-08T08:56:18;2.75;;;0.93;;
25946;SDS011;13745;51.470;9.894;2023-10-08T08:59:04;5.25;;;0.90;;
25946;SDS011;13745;51.470;9.894;2023-10-08T09:01:50;1.95;;;0.70;;
25946;SDS011;13745;51.470;9.894;2023-10-08T09:04:37;2.33;;;0.70;;
25946;SDS011;13745;51.470;9.894;2023-10-08T09:07:23;2.25;;;0.90;;
25946;SDS011;13745;51.470;9.894;2023-10-08T09:10:08;2.70;;;0.90;;
25946;SDS011;13745;51.470;9.894;2023-10-08T09:12:57;3.83;;;1.02;;
25946;SDS011;13745;51.470;9.894;2023-10-08T09:15:43;4.47;;;0.75;;
25946;SDS011;13745;51.470;9.894;2023-10-08T09:18:28;1.95;;;0.68;;
25946;SDS011;13745;51.470;9.894;2023-10-08T09:21:18;4.63;;;0.80;;
25946;SDS011;13745;51.470;9.894;2023-10-08T09:24:06;3.53;;;1.10;;
25946;SDS011;13745;51.470;9.894;2023-10-08T09:26:55;3.42;;;0.82;;
25946;SDS011;13745;51.470;9.894;2023-10-08T09:29:43;1.88;;;0.60;;
25946;SDS011;13745;51.470;9.894;2023-10-08T09:32:28;3.22;;;0.68;;
25946;SDS011;13745;51.470;9.894;2023-10-08T09:35:16;4.20;;;0.98;;
25946;SDS011;13745;51.470;9.894;2023-10-08T09:38:03;4.78;;;1.55;;
25946;SDS011;13745;51.470;9.894;2023-10-08T09:40:49;6.47;;;0.90;;
25946;SDS011;13745;51.470;9.894;2023-10-08T09:43:36;4.30;;;0.90;;
25946;SDS011;13745;51.470;9.894;2023-10-08T09:46:25;1.92;;;0.70;;
25946;SDS011;13745;51.470;9.894;2023-10-08T09:49:14;5.72;;;0.80;;
25946;SDS011;13745;51.470;9.894;2023-10-08T09:52:01;2.83;;;0.70;;
25946;SDS011;13745;51.470;9.894;2023-10-08T09:54:52;2.20;;;0.70;;
25946;SDS011;13745;51.470;9.894;2023-10-08T09:57:47;6.25;;;0.88;;
25946;SDS011;13745;51.470;9.894;2023-10-08T10:00:34;3.63;;;0.80;;
25946;SDS011;13745;51.470;9.894;2023-10-08T10:03:23;1.25;;;0.50;;
25946;SDS011;13745;51.470;9.894;2023-10-08T10:06:13;3.42;;;0.80;;
25946;SDS011;13745;51.470;9.894;2023-10-08T10:08:59;2.20;;;0.70;;
25946;SDS011;13745;51.470;9.894;2023-10-08T10:11:45;5.60;;;0.90;;
25946;SDS011;13745;51.470;9.894;2023-10-08T10:14:40;2.17;;;0.60;;
25946;SDS011;13745;51.470;9.894;2023-10-08T10:17:26;0.70;;;0.50;;
25946;SDS011;13745;51.470;9.894;2023-10-08T10:20:14;2.97;;;0.73;;
25946;SDS011;13745;51.470;9.894;2023-10-08T10:23:00;3.60;;;0.63;;
25946;SDS011;13745;51.470;9.894;2023-10-08T10:26:05;2.00;;;0.80;;
25946;SDS011;13745;51.470;9.894;2023-10-08T10:29:19;3.47;;;0.80;;
25946;SDS011;13745;51.470;9.894;2023-10-08T10:32:05;2.10;;;0.75;;
25946;SDS011;13745;51.470;9.894;2023-10-08T10:34:50;2.58;;;0.70;;
25946;SDS011;13745;51.470;9.894;2023-10-08T10:37:37;2.58;;;0.70;;
25946;SDS011;13745;51.470;9.894;2023-10-08T10:40:25;3.40;;;0.70;;
25946;SDS011;13745;51.470;9.894;2023-10-08T10:43:23;3.65;;;0.85;;
25946;SDS011;13745;51.470;9.894;2023-10-08T10:46:15;3.17;;;0.70;;
25946;SDS011;13745;51.470;9.894;2023-10-08T10:49:14;1.30;;;0.70;;
25946;SDS011;13745;51.470;9.894;2023-10-08T10:52:05;4.82;;;0.90;;
25946;SDS011;13745;51.470;9.894;2023-10-08T10:54:51;4.82;;;1.33;;
25946;SDS011;13745;51.470;9.894;2023-10-08T10:57:42;3.00;;;0.90;;
25946;SDS011;13745;51.470;9.894;2023-10-08T11:00:28;3.28;;;0.90;;
25946;SDS011;13745;51.470;9.894;2023-10-08T11:03:40;4.65;;;1.08;;
25946;SDS011;13745;51.470;9.894;2023-10-08T11:06:29;3.17;;;0.85;;
25946;SDS011;13745;51.470;9.894;2023-10-08T11:09:16;4.43;;;1.08;;
25946;SDS011;13745;51.470;9.894;2023-10-08T11:12:20;3.83;;;1.27;;
25946;SDS011;13745;51.470;9.894;2023-10-08T11:15:16;2.55;;;0.90;;
25946;SDS011;13745;51.470;9.894;2023-10-08T11:18:01;3.65;;;1.10;;
25946;SDS011;13745;51.470;9.894;2023-10-08T11:20:48;4.18;;;0.95;;
25946;SDS011;13745;51.470;9.894;2023-10-08T11:23:41;6.45;;;1.17;;
25946;SDS011;13745;51.470;9.894;2023-10-08T11:26:27;6.38;;;1.40;;
25946;SDS011;13745;51.470;9.894;2023-10-08T11:29:23;2.78;;;1.17;;
25946;SDS011;13745;51.470;9.894;2023-10-08T11:32:10;3.22;;;1.17;;
25946;SDS011;13745;51.470;9.894;2023-10-08T11:34:57;6.20;;;1.35;;
25946;SDS011;13745;51.470;9.894;2023-10-08T11:37:44;5.35;;;0.90;;
25946;SDS011;13745;51.470;9.894;2023-10-08T11:40:34;4.32;;;0.90;;
25946;SDS011;13745;51.470;9.894;2023-10-08T11:43:32;5.22;;;0.90;;
25946;SDS011;13745;51.470;9.894;2023-10-08T11:46:22;3.80;;;0.80;;
25946;SDS011;13745;51.470;9.894;2023-10-08T11:49:09;2.95;;;1.05;;
25946;SDS011;13745;51.470;9.894;2023-10-08T11:52:01;2.03;;;0.70;;
25946;SDS011;13745;51.470;9.894;2023-10-08T11:54:47;8.02;;;1.10;;
25946;SDS011;13745;51.470;9.894;2023-10-08T11:57:33;4.25;;;0.85;;
25946;SDS011;13745;51.470;9.894;2023-10-08T12:00:19;3.92;;;0.82;;
25946;SDS011;13745;51.470;9.894;2023-10-08T12:03:10;5.07;;;1.25;;
25946;SDS011;13745;51.470;9.894;2023-10-08T12:05:56;3.00;;;1.05;;
25946;SDS011;13745;51.470;9.894;2023-10-08T12:08:43;2.45;;;1.15;;
25946;SDS011;13745;51.470;9.894;2023-10-08T12:11:29;2.22;;;0.95;;
25946;SDS011;13745;51.470;9.894;2023-10-08T12:14:15;2.83;;;0.80;;
25946;SDS011;13745;51.470;9.894;2023-10-08T12:17:00;5.38;;;1.08;;
25946;SDS011;13745;51.470;9.894;2023-10-08T12:19:56;4.32;;;0.98;;
25946;SDS011;13745;51.470;9.894;2023-10-08T12:22:41;3.65;;;0.93;;
25946;SDS011;13745;51.470;9.894;2023-10-08T12:25:27;4.22;;;0.90;;
25946;SDS011;13745;51.470;9.894;2023-10-08T12:28:12;3.42;;;1.08;;
25946;SDS011;13745;51.470;9.894;2023-10-08T12:30:58;5.32;;;0.93;;
25946;SDS011;13745;51.470;9.894;2023-10-08T12:33:44;3.08;;;0.70;;
25946;SDS011;13745;51.470;9.894;2023-10-08T12:36:30;4.15;;;1.10;;
25946;SDS011;13745;51.470;9.894;2023-10-08T12:39:17;2.75;;;0.85;;
25946;SDS011;13745;51.470;9.894;2023-10-08T12:42:02;2.95;;;0.90;;
25946;SDS011;13745;51.470;9.894;2023-10-08T12:44:49;3.45;;;1.10;;
25946;SDS011;13745;51.470;9.894;2023-10-08T12:47:34;6.45;;;0.77;;
25946;SDS011;13745;51.470;9.894;2023-10-08T12:50:20;6.28;;;0.90;;
25946;SDS011;13745;51.470;9.894;2023-10-08T12:53:14;3.83;;;0.90;;
25946;SDS011;13745;51.470;9.894;2023-10-08T12:55:59;2.35;;;0.75;;
25946;SDS011;13745;51.470;9.894;2023-10-08T12:58:49;4.50;;;0.85;;
25946;SDS011;13745;51.470;9.894;2023-10-08T13:01:37;5.43;;;1.30;;
25946;SDS011;13745;51.470;9.894;2023-10-08T13:04:25;2.83;;;0.80;;
25946;SDS011;13745;51.470;9.894;2023-10-08T13:07:11;5.40;;;1.35;;
25946;SDS011;13745;51.470;9.894;2023-10-08T13:09:59;3.30;;;0.75;;
25946;SDS011;13745;51.470;9.894;2023-10-08T13:12:44;5.32;;;1.13;;
25946;SDS011;13745;51.470;9.894;2023-10-08T13:15:29;2.90;;;0.80;;
25946;SDS011;13745;51.470;9.894;2023-10-08T13:18:18;6.35;;;1.52;;
25946;SDS011;13745;51.470;9.894;2023-10-08T13:21:03;7.50;;;1.23;;
25946;SDS011;13745;51.470;9.894;2023-10-08T13:23:50;7.45;;;1.13;;
25946;SDS011;13745;51.470;9.894;2023-10-08T13:26:37;3.15;;;0.90;;
25946;SDS011;13745;51.470;9.894;2023-10-08T13:29:22;7.93;;;1.05;;
25946;SDS011;13745;51.470;9.894;2023-10-08T13:32:10;6.82;;;1.00;;
25946;SDS011;13745;51.470;9.894;2023-10-08T13:35:01;3.90;;;1.02;;
25946;SDS011;13745;51.470;9.894;2023-10-08T13:37:48;4.78;;;1.20;;
25946;SDS011;13745;51.470;9.894;2023-10-08T13:40:33;2.80;;;1.23;;
25946;SDS011;13745;51.470;9.894;2023-10-08T13:43:24;2.78;;;0.95;;
25946;SDS011;13745;51.470;9.894;2023-10-08T13:46:17;3.58;;;1.20;;
25946;SDS011;13745;51.470;9.894;2023-10-08T13:49:06;2.58;;;1.00;;
25946;SDS011;13745;51.470;9.894;2023-10-08T13:51:52;5.45;;;0.90;;
25946;SDS011;13745;51.470;9.894;2023-10-08T13:54:40;4.97;;;0.98;;
25946;SDS011;13745;51.470;9.894;2023-10-08T13:57:31;2.63;;;1.00;;
25946;SDS011;13745;51.470;9.894;2023-10-08T14:00:18;2.97;;;0.88;;
25946;SDS011;13745;51.470;9.894;2023-10-08T14:03:09;4.75;;;1.30;;
25946;SDS011;13745;51.470;9.894;2023-10-08T14:05:57;3.08;;;0.98;;
25946;SDS011;13745;51.470;9.894;2023-10-08T14:08:46;1.63;;;0.77;;
25946;SDS011;13745;51.470;9.894;2023-10-08T14:11:35;4.03;;;0.95;;
25946;SDS011;13745;51.470;9.894;2023-10-08T14:14:20;2.58;;;0.73;;
25946;SDS011;13745;51.470;9.894;2023-10-08T14:17:09;2.50;;;0.90;;
25946;SDS011;13745;51.470;9.894;2023-10-08T14:19:58;2.28;;;0.60;;
25946;SDS011;13745;51.470;9.894;2023-10-08T14:25:41;2.80;;;0.70;;
25946;SDS011;13745;51.470;9.894;2023-10-08T14:28:28;3.92;;;0.85;;
25946;SDS011;13745;51.470;9.894;2023-10-08T14:31:25;3.88;;;0.85;;
25946;SDS011;13745;51.470;9.894;2023-10-08T14:34:13;1.80;;;0.90;;
25946;SDS011;13745;51.470;9.894;2023-10-08T14:37:13;1.85;;;0.85;;
25946;SDS011;13745;51.470;9.894;2023-10-08T14:40:16;1.98;;;0.70;;
25946;SDS011;13745;51.470;9.894;2023-10-08T14:43:19;3.03;;;0.95;;
25946;SDS011;13745;51.470;9.894;2023-10-08T14:46:07;3.08;;;0.95;;
25946;SDS011;13745;51.470;9.894;2023-10-08T14:48:53;3.22;;;0.98;;
25946;SDS011;13745;51.470;9.894;2023-10-08T14:51:40;3.28;;;0.95;;
25946;SDS011;13745;51.470;9.894;2023-10-08T14:54:25;2.67;;;0.80;;
25946;SDS011;13745;51.470;9.894;2023-10-08T14:57:12;3.03;;;0.90;;
25946;SDS011;13745;51.470;9.894;2023-10-08T14:59:58;1.17;;;0.70;;
25946;SDS011;13745;51.470;9.894;2023-10-08T15:02:43;4.80;;;1.02;;
25946;SDS011;13745;51.470;9.894;2023-10-08T15:05:28;1.55;;;0.65;;
25946;SDS011;13745;51.470;9.894;2023-10-08T15:08:15;1.45;;;1.05;;
25946;SDS011;13745;51.470;9.894;2023-10-08T15:11:02;2.28;;;0.77;;
25946;SDS011;13745;51.470;9.894;2023-10-08T15:13:50;2.90;;;0.85;;
25946;SDS011;13745;51.470;9.894;2023-10-08T15:16:37;3.67;;;1.40;;
25946;SDS011;13745;51.470;9.894;2023-10-08T15:19:23;2.42;;;0.70;;
25946;SDS011;13745;51.470;9.894;2023-10-08T15:22:08;1.85;;;0.88;;
25946;SDS011;13745;51.470;9.894;2023-10-08T15:24:55;2.28;;;0.77;;
25946;SDS011;13745;51.470;9.894;2023-10-08T15:27:41;2.20;;;0.75;;
25946;SDS011;13745;51.470;9.894;2023-10-08T15:30:28;2.90;;;0.73;;
25946;SDS011;13745;51.470;9.894;2023-10-08T15:33:13;3.10;;;0.82;;
25946;SDS011;13745;51.470;9.894;2023-10-08T15:35:59;1.98;;;0.85;;
25946;SDS011;13745;51.470;9.894;2023-10-08T15:38:45;1.80;;;0.63;;
25946;SDS011;13745;51.470;9.894;2023-10-08T15:41:31;2.58;;;0.85;;
25946;SDS011;13745;51.470;9.894;2023-10-08T15:44:19;2.15;;;0.77;;
25946;SDS011;13745;51.470;9.894;2023-10-08T15:47:05;3.60;;;0.70;;
25946;SDS011;13745;51.470;9.894;2023-10-08T15:49:50;3.05;;;0.80;;
25946;SDS011;13745;51.470;9.894;2023-10-08T15:52:37;1.25;;;0.75;;
25946;SDS011;13745;51.470;9.894;2023-10-08T15:55:22;2.40;;;0.90;;
25946;SDS011;13745;51.470;9.894;2023-10-08T15:58:10;10.27;;;0.73;;
25946;SDS011;13745;51.470;9.894;2023-10-08T16:00:56;1.48;;;0.80;;
25946;SDS011;13745;51.470;9.894;2023-10-08T16:03:41;1.40;;;0.85;;
25946;SDS011;13745;51.470;9.894;2023-10-08T16:06:26;1.83;;;0.70;;
25946;SDS011;13745;51.470;9.894;2023-10-08T16:09:11;2.35;;;1.10;;
25946;SDS011;13745;51.470;9.894;2023-10-08T16:11:56;2.85;;;0.70;;
25946;SDS011;13745;51.470;9.894;2023-10-08T16:14:44;3.00;;;1.05;;
25946;SDS011;13745;51.470;9.894;2023-10-08T16:17:29;3.72;;;0.93;;
25946;SDS011;13745;51.470;9.894;2023-10-08T16:20:14;2.50;;;1.05;;
25946;SDS011;13745;51.470;9.894;2023-10-08T16:22:59;2.42;;;0.90;;
25946;SDS011;13745;51.470;9.894;2023-10-08T16:25:45;2.28;;;0.80;;
25946;SDS011;13745;51.470;9.894;2023-10-08T16:28:33;1.40;;;0.98;;
25946;SDS011;13745;51.470;9.894;2023-10-08T16:31:19;2.83;;;0.80;;
25946;SDS011;13745;51.470;9.894;2023-10-08T16:34:05;2.40;;;1.10;;
25946;SDS011;13745;51.470;9.894;2023-10-08T16:36:52;4.22;;;1.38;;
25946;SDS011;13745;51.470;9.894;2023-10-08T16:39:38;4.18;;;1.58;;
25946;SDS011;13745;51.470;9.894;2023-10-08T16:42:23;3.67;;;1.52;;
25946;SDS011;13745;51.470;9.894;2023-10-08T16:45:10;2.63;;;1.13;;
25946;SDS011;13745;51.470;9.894;2023-10-08T16:48:01;3.47;;;1.23;;
25946;SDS011;13745;51.470;9.894;2023-10-08T16:50:47;2.30;;;0.82;;
25946;SDS011;13745;51.470;9.894;2023-10-08T16:53:34;2.65;;;1.25;;
25946;SDS011;13745;51.470;9.894;2023-10-08T16:56:19;4.43;;;1.88;;
25946;SDS011;13745;51.470;9.894;2023-10-08T16:59:05;2.15;;;1.42;;
25946;SDS011;13745;51.470;9.894;2023-10-08T17:01:51;3.70;;;0.93;;
25946;SDS011;13745;51.470;9.894;2023-10-08T17:04:37;2.17;;;1.10;;
25946;SDS011;13745;51.470;9.894;2023-10-08T17:07:23;2.10;;;0.60;;